Time;durP1;ratioP1;P1;durP2;ratioP2;P2;SDS_P1;SDS_P2;PMS_P1;PMS_P2;Temp;Humidity;BMP_temperature;BMP_pressure;BME280_temperature;BME280_humidity;BME280_pressure;Samples;Min_cycle;Max_cycle;Signal;HPM_P1;HPM_P2
2021/06/27 08:25:12;;;;;;;13.95;10.38;;;23.00;99.90;;;;;;14955106;22;1318905;-53
2021/06/27 08:30:59;;;;;;;13.25;10.25;;;23.20;99.90;;;;;;14780915;23;20028;-57
2021/06/27 08:36:46;;;;;;;12.43;9.93;;;23.30;99.90;;;;;;14770070;23;20028;-50
2021/06/27 08:42:34;;;;;;;16.58;10.27;;;23.40;99.90;;;;;;14769334;23;20107;-50
2021/06/27 08:48:23;;;;;;;17.58;10.65;;;23.40;99.90;;;;;;14772429;23;20052;-52
2021/06/27 08:54:12;;;;;;;20.70;11.45;;;23.50;99.90;;;;;;14770237;23;20082;-50
2021/06/27 09:00:00;;;;;;;16.27;11.60;;;23.40;99.90;;;;;;14765909;23;20620;-54
2021/06/27 09:05:47;;;;;;;19.58;11.95;;;23.40;99.90;;;;;;14764224;23;20048;-53
2021/06/27 09:11:34;;;;;;;16.95;12.20;;;23.30;99.90;;;;;;14751819;23;20028;-52
2021/06/27 09:17:24;;;;;;;18.88;12.82;;;23.20;99.90;;;;;;14781070;23;21033;-50
2021/06/27 09:23:13;;;;;;;17.92;12.40;;;23.20;99.90;;;;;;14786342;23;20033;-51
2021/06/27 09:29:01;;;;;;;21.88;13.25;;;23.20;99.90;;;;;;14776865;23;20103;-53
2021/06/27 09:34:50;;;;;;;17.38;13.55;;;23.10;99.90;;;;;;14786720;23;20048;-54
2021/06/27 09:40:37;;;;;;;23.05;14.82;;;23.10;99.90;;;;;;14784864;23;20099;-51
2021/06/27 09:46:33;;;;;;;20.58;14.57;;;23.00;99.90;;;;;;14785914;23;20408;-54
2021/06/27 09:52:35;;;;;;;21.27;15.10;;;23.00;99.90;;;;;;14782751;23;20120;-54
2021/06/27 09:58:22;;;;;;;22.67;15.45;;;23.00;99.90;;;;;;14785093;23;20025;-51
2021/06/27 10:04:10;;;;;;;19.52;13.85;;;23.00;99.90;;;;;;14785885;23;20020;-53
2021/06/27 10:09:58;;;;;;;22.80;14.57;;;23.10;99.90;;;;;;14784017;23;20103;-51
2021/06/27 10:15:46;;;;;;;22.85;14.15;;;22.90;99.90;;;;;;14785805;22;20028;-52
2021/06/27 10:21:33;;;;;;;16.13;12.98;;;22.80;99.90;;;;;;14784520;23;20048;-50
2021/06/27 10:27:22;;;;;;;19.67;14.20;;;22.70;99.90;;;;;;14768120;23;20056;-49
2021/06/27 10:33:09;;;;;;;21.10;14.40;;;22.70;99.90;;;;;;14750193;23;20389;-52
2021/06/27 10:38:58;;;;;;;19.13;13.18;;;22.80;99.90;;;;;;14754910;23;20079;-54
2021/06/27 10:45:01;;;;;;;17.63;13.70;;;23.10;99.90;;;;;;14752744;23;20031;-51
2021/06/27 10:50:53;;;;;;;14.20;10.75;;;23.20;99.90;;;;;;14751733;23;20086;-50
2021/06/27 10:57:01;;;;;;;12.85;9.60;;;23.40;99.90;;;;;;14755771;23;20374;-49
2021/06/27 11:02:49;;;;;;;12.50;9.40;;;23.50;99.90;;;;;;14777164;23;20111;-52
2021/06/27 11:08:40;;;;;;;14.25;9.70;;;23.50;99.90;;;;;;14783476;23;20459;-52
2021/06/27 11:14:30;;;;;;;9.70;8.35;;;23.80;99.90;;;;;;14784158;23;20023;-51
2021/06/27 11:20:18;;;;;;;14.45;8.65;;;24.00;99.90;;;;;;14783965;23;20084;-50
2021/06/27 11:26:05;;;;;;;7.47;6.60;;;24.00;99.90;;;;;;14773903;22;20254;-52
2021/06/27 11:31:54;;;;;;;6.90;5.43;;;23.90;99.90;;;;;;14755875;23;20370;-50
2021/06/27 11:37:45;;;;;;;8.70;4.80;;;23.70;99.90;;;;;;14753941;23;20029;-50
2021/06/27 11:43:56;;;;;;;7.95;5.72;;;23.70;99.90;;;;;;14755542;23;20112;-53
2021/06/27 11:49:43;;;;;;;7.15;5.47;;;23.60;99.90;;;;;;14757743;23;20127;-51
2021/06/27 11:55:33;;;;;;;6.78;4.88;;;23.80;99.90;;;;;;14754331;23;20084;-52
2021/06/27 12:01:22;;;;;;;10.23;5.60;;;23.70;99.90;;;;;;14756657;23;20365;-50
2021/06/27 12:07:29;;;;;;;7.80;4.70;;;23.80;99.90;;;;;;14755871;23;20430;-52
2021/06/27 12:13:17;;;;;;;5.00;3.85;;;24.00;99.90;;;;;;14755773;23;20032;-54
2021/06/27 12:19:04;;;;;;;8.27;4.78;;;24.20;99.90;;;;;;14756663;23;20457;-50
2021/06/27 12:24:51;;;;;;;3.28;2.97;;;24.50;99.90;;;;;;14755320;23;20407;-50
2021/06/27 12:30:48;;;;;;;4.57;3.60;;;24.60;99.90;;;;;;14755100;23;20032;-53
2021/06/27 12:36:38;;;;;;;3.90;3.50;;;24.70;99.90;;;;;;14749343;23;20052;-52
2021/06/27 12:42:32;;;;;;;4.00;3.60;;;24.60;99.90;;;;;;14751025;23;20484;-53
2021/06/27 12:48:20;;;;;;;4.00;3.60;;;24.60;99.90;;;;;;14755874;23;20025;-55
2021/06/27 12:54:14;;;;;;;5.05;4.18;;;24.60;99.90;;;;;;14732283;23;20071;-52
2021/06/27 13:00:01;;;;;;;4.20;3.80;;;24.60;99.90;;;;;;14777285;23;20059;-54
2021/06/27 13:05:59;;;;;;;4.80;3.53;;;24.80;99.90;;;;;;14787162;23;20076;-53
2021/06/27 13:12:06;;;;;;;4.88;3.60;;;25.00;99.90;;;;;;14784593;23;20051;-60
2021/06/27 13:17:55;;;;;;;4.55;3.47;;;25.40;99.90;;;;;;14786684;22;20016;-50
2021/06/27 13:23:43;;;;;;;3.47;3.15;;;25.80;99.90;;;;;;14786240;23;20044;-51
2021/06/27 13:29:30;;;;;;;3.70;3.28;;;26.10;99.90;;;;;;14760593;23;20075;-53
2021/06/27 13:35:31;;;;;;;4.88;3.45;;;25.90;99.90;;;;;;14758151;23;20021;-54
2021/06/27 13:41:21;;;;;;;4.05;3.63;;;25.90;99.90;;;;;;14755876;23;20025;-64
2021/06/27 13:47:08;;;;;;;5.20;4.07;;;25.70;99.90;;;;;;14754034;23;20028;-54
2021/06/27 13:52:57;;;;;;;4.82;3.88;;;25.70;99.90;;;;;;14757102;23;20032;-53
2021/06/27 13:58:47;;;;;;;4.82;4.07;;;25.70;99.90;;;;;;14757728;23;20040;-54
2021/06/27 14:04:33;;;;;;;4.85;4.10;;;26.20;99.90;;;;;;14756473;23;20219;-51
2021/06/27 14:10:23;;;;;;;6.97;4.80;;;26.70;99.90;;;;;;14756954;23;20450;-53
2021/06/27 14:16:13;;;;;;;8.68;4.18;;;26.50;99.90;;;;;;14717475;23;20538;-55
2021/06/27 14:21:59;;;;;;;4.97;4.00;;;26.00;99.90;;;;;;14756979;23;20029;-55
2021/06/27 14:27:46;;;;;;;5.80;4.45;;;26.10;99.90;;;;;;14758525;23;20039;-53
2021/06/27 14:33:35;;;;;;;8.07;4.50;;;26.00;99.90;;;;;;14662840;23;20114;-55
2021/06/27 14:39:25;;;;;;;5.43;4.78;;;26.00;99.90;;;;;;14758311;23;20032;-51
2021/06/27 14:45:15;;;;;;;5.32;4.80;;;26.10;99.90;;;;;;14754471;23;20028;-55
2021/06/27 14:51:05;;;;;;;6.38;5.28;;;26.10;99.90;;;;;;14756380;23;20024;-51
2021/06/27 14:56:52;;;;;;;5.97;4.72;;;25.90;99.90;;;;;;14755818;23;20043;-50
2021/06/27 15:02:39;;;;;;;5.18;4.45;;;25.70;99.90;;;;;;14755955;23;20083;-52
2021/06/27 15:08:27;;;;;;;6.03;4.07;;;25.90;99.90;;;;;;14752736;23;20030;-50
2021/06/27 15:14:14;;;;;;;5.43;4.50;;;26.10;99.90;;;;;;14756007;23;20024;-52
2021/06/27 15:20:01;;;;;;;4.47;4.07;;;26.20;99.90;;;;;;14757579;23;20107;-52
2021/06/27 15:25:49;;;;;;;4.55;4.07;;;26.00;99.90;;;;;;14754481;23;20103;-54
2021/06/27 15:31:37;;;;;;;6.55;3.97;;;26.10;99.90;;;;;;14755641;23;20084;-53
2021/06/27 15:37:23;;;;;;;4.32;3.63;;;26.30;99.90;;;;;;14755243;23;20123;-51
2021/06/27 15:43:12;;;;;;;3.42;3.13;;;27.30;99.90;;;;;;14754935;23;20103;-51
2021/06/27 15:49:00;;;;;;;4.55;2.55;;;29.20;99.90;;;;;;14756512;23;20111;-56
2021/06/27 15:54:48;;;;;;;2.50;2.30;;;31.60;93.10;;;;;;14753968;23;20108;-56
2021/06/27 16:00:36;;;;;;;3.40;2.53;;;31.70;85.90;;;;;;14755451;23;20079;-51
2021/06/27 16:06:23;;;;;;;3.25;2.67;;;31.30;85.10;;;;;;14755288;23;20032;-55
2021/06/27 16:12:10;;;;;;;3.08;2.47;;;32.60;77.90;;;;;;14756683;23;20107;-50
2021/06/27 16:17:59;;;;;;;2.80;2.45;;;31.50;79.10;;;;;;14755813;23;20108;-55
2021/06/27 16:23:45;;;;;;;2.88;2.40;;;30.50;77.40;;;;;;14758824;23;20032;-53
2021/06/27 16:29:33;;;;;;;2.72;2.50;;;30.80;78.50;;;;;;14760830;23;20025;-56
2021/06/27 16:35:21;;;;;;;3.25;2.60;;;31.10;74.20;;;;;;14755741;23;20099;-57
2021/06/27 16:41:08;;;;;;;3.10;2.80;;;30.20;81.50;;;;;;14754402;23;20696;-54
2021/06/27 16:46:55;;;;;;;2.47;2.28;;;29.90;80.20;;;;;;14753561;23;20028;-51
2021/06/27 16:52:43;;;;;;;4.63;2.30;;;29.40;80.00;;;;;;14752654;23;20031;-54
2021/06/27 16:58:31;;;;;;;2.60;2.40;;;29.40;78.40;;;;;;14754984;23;20025;-53
2021/06/27 17:04:18;;;;;;;3.10;2.22;;;29.10;83.20;;;;;;14759589;23;20307;-55
2021/06/27 17:10:10;;;;;;;2.53;2.33;;;30.60;81.20;;;;;;14758079;23;20046;-54
2021/06/27 17:15:58;;;;;;;5.90;2.70;;;32.20;74.40;;;;;;14757942;23;20046;-53
2021/06/27 17:21:45;;;;;;;2.50;2.30;;;31.50;74.30;;;;;;14760146;23;20182;-52
2021/06/27 17:27:33;;;;;;;4.55;2.42;;;29.90;77.90;;;;;;14758570;23;20099;-52
2021/06/27 17:33:20;;;;;;;3.28;2.45;;;28.70;81.80;;;;;;14757030;23;20020;-54
2021/06/27 17:39:07;;;;;;;3.05;2.20;;;29.20;84.90;;;;;;14757854;23;20127;-52
2021/06/27 17:44:56;;;;;;;3.00;2.30;;;33.90;68.30;;;;;;14758555;23;20031;-54
2021/06/27 17:50:44;;;;;;;2.35;2.15;;;36.60;59.40;;;;;;14756266;23;20367;-54
2021/06/27 17:56:35;;;;;;;3.83;1.88;;;38.00;55.20;;;;;;14756917;23;20024;-54
2021/06/27 18:02:23;;;;;;;2.00;1.90;;;38.60;51.00;;;;;;14757522;23;20082;-56
2021/06/27 18:08:10;;;;;;;2.63;1.80;;;36.20;55.40;;;;;;14756982;23;20115;-55
2021/06/27 18:13:59;;;;;;;1.90;1.80;;;37.40;53.30;;;;;;14698842;23;20355;-55
2021/06/27 18:19:47;;;;;;;2.85;1.80;;;38.30;50.60;;;;;;14757829;23;20025;-56
2021/06/27 18:25:34;;;;;;;4.57;1.83;;;38.20;51.50;;;;;;14755093;23;20463;-54
2021/06/27 18:31:23;;;;;;;3.47;1.60;;;38.40;50.80;;;;;;14757499;23;20020;-54
2021/06/27 18:37:11;;;;;;;3.45;3.15;;;38.60;49.40;;;;;;14753902;23;20502;-52
2021/06/27 18:42:58;;;;;;;2.17;1.92;;;37.10;52.10;;;;;;14754480;23;20032;-55
2021/06/27 18:48:45;;;;;;;4.28;2.40;;;34.70;56.10;;;;;;14756206;23;20027;-51
2021/06/27 18:54:33;;;;;;;4.30;2.22;;;32.00;63.40;;;;;;14756270;23;20170;-54
2021/06/27 19:00:20;;;;;;;8.80;2.63;;;30.20;71.10;;;;;;14756488;23;20050;-51
2021/06/27 19:06:07;;;;;;;3.38;2.22;;;28.90;74.90;;;;;;14757231;23;20025;-55
2021/06/27 19:11:56;;;;;;;4.50;1.90;;;28.00;80.00;;;;;;14756552;23;20031;-53
2021/06/27 19:17:43;;;;;;;4.82;2.55;;;27.40;84.70;;;;;;14714948;23;20032;-55
2021/06/27 19:23:31;;;;;;;9.15;3.70;;;27.00;88.70;;;;;;14756402;23;20024;-52
2021/06/27 19:29:19;;;;;;;5.47;2.35;;;26.60;91.70;;;;;;14740266;23;20025;-53
2021/06/27 19:35:07;;;;;;;6.60;2.97;;;26.40;95.90;;;;;;14755940;23;20028;-51
2021/06/27 19:40:55;;;;;;;6.55;3.10;;;26.20;99.70;;;;;;14760546;23;20027;-56
2021/06/27 19:46:46;;;;;;;4.50;3.72;;;26.10;99.90;;;;;;14756409;23;20043;-54
2021/06/27 19:52:34;;;;;;;7.20;2.63;;;25.90;99.90;;;;;;14717225;23;20030;-63
2021/06/27 19:58:21;;;;;;;3.30;3.00;;;25.70;99.90;;;;;;14756220;23;20170;-59
2021/06/27 20:04:12;;;;;;;3.40;3.10;;;25.60;99.90;;;;;;14725267;23;20035;-61
2021/06/27 20:09:59;;;;;;;7.90;3.78;;;25.40;99.90;;;;;;14749192;23;20021;-54
2021/06/27 20:15:49;;;;;;;6.47;3.45;;;25.10;99.90;;;;;;14751853;23;20056;-56
2021/06/27 20:21:38;;;;;;;5.60;4.22;;;24.90;99.90;;;;;;14753114;23;20360;-55
2021/06/27 20:27:24;;;;;;;5.25;3.60;;;24.80;99.90;;;;;;14752561;23;20051;-53
2021/06/27 20:33:12;;;;;;;8.18;3.63;;;24.70;99.90;;;;;;14751624;23;20028;-57
2021/06/27 20:39:02;;;;;;;4.57;3.63;;;24.50;99.90;;;;;;14752239;23;20366;-56
2021/06/27 20:44:49;;;;;;;9.18;3.92;;;24.50;99.90;;;;;;14752021;23;20048;-57
2021/06/27 20:50:36;;;;;;;6.22;3.80;;;24.50;99.90;;;;;;14751840;23;20087;-55
2021/06/27 20:56:26;;;;;;;6.00;3.53;;;24.50;99.90;;;;;;14751534;23;20533;-58
2021/06/27 21:02:19;;;;;;;5.43;3.30;;;24.60;99.90;;;;;;14753091;23;20035;-57
2021/06/27 21:08:06;;;;;;;4.65;3.15;;;24.60;99.90;;;;;;14753669;23;20020;-57
2021/06/27 21:13:56;;;;;;;5.22;2.97;;;24.60;99.90;;;;;;14757168;23;20548;-56
2021/06/27 21:19:43;;;;;;;5.55;3.05;;;24.50;99.90;;;;;;14756985;23;20761;-55
2021/06/27 21:25:30;;;;;;;5.47;3.22;;;24.50;99.90;;;;;;14755639;23;20570;-57
2021/06/27 21:31:19;;;;;;;4.28;3.33;;;24.30;99.90;;;;;;14755621;23;20035;-57
2021/06/27 21:37:06;;;;;;;7.30;2.70;;;24.20;99.90;;;;;;14755111;23;20024;-55
2021/06/27 21:42:53;;;;;;;7.07;3.30;;;24.10;99.90;;;;;;14756902;23;20106;-58
2021/06/27 21:48:41;;;;;;;4.13;3.13;;;24.20;99.90;;;;;;14755324;23;20498;-54
2021/06/27 21:54:32;;;;;;;4.40;2.95;;;24.20;99.90;;;;;;14757442;23;20080;-57
2021/06/27 22:00:22;;;;;;;4.97;3.17;;;24.30;99.90;;;;;;14756560;23;20508;-56
2021/06/27 22:06:11;;;;;;;4.05;2.95;;;24.40;99.90;;;;;;14755484;23;20055;-55
2021/06/27 22:11:58;;;;;;;5.57;3.17;;;24.30;99.90;;;;;;14757014;23;20104;-54
2021/06/27 22:17:46;;;;;;;4.93;2.80;;;24.20;99.90;;;;;;14754880;23;20028;-56
2021/06/27 22:23:34;;;;;;;7.68;4.25;;;24.30;99.90;;;;;;14754853;23;20031;-53
2021/06/27 22:29:21;;;;;;;5.68;2.97;;;24.30;99.90;;;;;;14753751;23;20028;-56
